sensor_id;sensor_type;location;lat;lon;timestamp;pressure;altitude;pressure_sealevel;temperature;humidity
77299;BME280;66361;52.034;20.656;2023-04-29T00:03:34;99762.75;;;5.08;74.91
77299;BME280;66361;52.034;20.656;2023-04-29T00:07:38;99753.72;;;5.15;74.41
77299;BME280;66361;52.034;20.656;2023-04-29T00:11:41;99762.06;;;5.05;75.25
77299;BME280;66361;52.034;20.656;2023-04-29T00:15:45;99759.66;;;5.00;76.04
77299;BME280;66361;52.034;20.656;2023-04-29T00:19:48;99754.34;;;5.02;75.19
77299;BME280;66361;52.034;20.656;2023-04-29T00:23:51;99761.81;;;5.09;74.38
77299;BME280;66361;52.034;20.656;2023-04-29T00:27:54;99750.31;;;5.13;74.41
77299;BME280;66361;52.034;20.656;2023-04-29T00:32:06;99744.09;;;5.16;74.33
77299;BME280;66361;52.034;20.656;2023-04-29T00:36:09;99744.81;;;5.19;74.27
77299;BME280;66361;52.034;20.656;2023-04-29T00:40:12;99743.94;;;5.19;73.64
77299;BME280;66361;52.034;20.656;2023-04-29T00:44:17;99745.25;;;5.46;73.12
77299;BME280;66361;52.034;20.656;2023-04-29T00:48:32;99733.94;;;5.46;72.17
77299;BME280;66361;52.034;20.656;2023-04-29T00:52:36;99735.31;;;5.53;71.71
77299;BME280;66361;52.034;20.656;2023-04-29T00:56:42;99728.38;;;5.52;73.02
77299;BME280;66361;52.034;20.656;2023-04-29T01:00:48;99732.28;;;5.43;73.11
77299;BME280;66361;52.034;20.656;2023-04-29T01:04:52;99730.03;;;5.35;73.08
77299;BME280;66361;52.034;20.656;2023-04-29T01:09:06;99738.00;;;5.51;71.83
77299;BME280;66361;52.034;20.656;2023-04-29T01:13:16;99731.78;;;5.71;71.32
77299;BME280;66361;52.034;20.656;2023-04-29T01:17:23;99731.56;;;5.75;70.30
77299;BME280;66361;52.034;20.656;2023-04-29T01:21:28;99737.03;;;5.88;70.54
77299;BME280;66361;52.034;20.656;2023-04-29T01:25:33;99725.69;;;5.87;69.30
77299;BME280;66361;52.034;20.656;2023-04-29T01:29:42;99733.03;;;5.81;70.73
77299;BME280;66361;52.034;20.656;2023-04-29T01:33:57;99735.47;;;5.84;69.91
77299;BME280;66361;52.034;20.656;2023-04-29T01:38:08;99738.66;;;5.91;69.10
77299;BME280;66361;52.034;20.656;2023-04-29T01:42:23;99739.59;;;5.90;69.82
77299;BME280;66361;52.034;20.656;2023-04-29T01:46:30;99742.03;;;5.93;69.32
77299;BME280;66361;52.034;20.656;2023-04-29T01:50:33;99736.97;;;5.90;69.01
77299;BME280;66361;52.034;20.656;2023-04-29T01:54:36;99740.34;;;5.92;69.34
77299;BME280;66361;52.034;20.656;2023-04-29T01:58:41;99732.34;;;5.95;69.28
77299;BME280;66361;52.034;20.656;2023-04-29T02:02:45;99721.94;;;5.93;69.24
77299;BME280;66361;52.034;20.656;2023-04-29T02:06:54;99734.78;;;5.80;69.97
77299;BME280;66361;52.034;20.656;2023-04-29T02:10:58;99728.41;;;5.86;69.40
77299;BME280;66361;52.034;20.656;2023-04-29T02:15:03;99724.50;;;5.95;68.62
77299;BME280;66361;52.034;20.656;2023-04-29T02:19:07;99726.25;;;5.94;68.85
77299;BME280;66361;52.034;20.656;2023-04-29T02:23:11;99716.53;;;5.96;69.10
77299;BME280;66361;52.034;20.656;2023-04-29T02:27:14;99717.38;;;5.97;68.96
77299;BME280;66361;52.034;20.656;2023-04-29T02:31:18;99722.56;;;5.98;69.05
77299;BME280;66361;52.034;20.656;2023-04-29T02:35:22;99711.13;;;5.99;68.60
77299;BME280;66361;52.034;20.656;2023-04-29T02:39:25;99719.16;;;5.96;68.85
77299;BME280;66361;52.034;20.656;2023-04-29T02:43:28;99710.38;;;5.97;69.02
77299;BME280;66361;52.034;20.656;2023-04-29T02:47:33;99709.91;;;5.89;68.88
77299;BME280;66361;52.034;20.656;2023-04-29T02:51:36;99708.22;;;5.88;68.76
77299;BME280;66361;52.034;20.656;2023-04-29T02:55:39;99704.06;;;5.84;69.16
77299;BME280;66361;52.034;20.656;2023-04-29T02:59:43;99696.00;;;5.71;70.29
77299;BME280;66361;52.034;20.656;2023-04-29T03:03:47;99704.13;;;5.65;70.27
77299;BME280;66361;52.034;20.656;2023-04-29T03:07:51;99697.13;;;5.66;70.64
77299;BME280;66361;52.034;20.656;2023-04-29T03:11:53;99695.91;;;5.56;70.74
77299;BME280;66361;52.034;20.656;2023-04-29T03:15:57;99706.38;;;5.38;73.96
77299;BME280;66361;52.034;20.656;2023-04-29T03:20:02;99701.34;;;5.34;72.14
77299;BME280;66361;52.034;20.656;2023-04-29T03:24:05;99702.81;;;5.39;71.60
77299;BME280;66361;52.034;20.656;2023-04-29T03:28:08;99696.50;;;5.44;71.88
77299;BME280;66361;52.034;20.656;2023-04-29T03:32:11;99697.44;;;5.60;70.56
77299;BME280;66361;52.034;20.656;2023-04-29T03:36:15;99697.22;;;5.64;71.01
77299;BME280;66361;52.034;20.656;2023-04-29T03:40:18;99691.69;;;5.70;70.96
77299;BME280;66361;52.034;20.656;2023-04-29T03:44:22;99700.75;;;5.80;70.32
77299;BME280;66361;52.034;20.656;2023-04-29T03:48:25;99692.59;;;5.86;70.05
77299;BME280;66361;52.034;20.656;2023-04-29T03:52:29;99692.75;;;6.01;69.32
77299;BME280;66361;52.034;20.656;2023-04-29T03:56:32;99684.16;;;6.14;68.66
77299;BME280;66361;52.034;20.656;2023-04-29T04:00:35;99686.59;;;6.34;68.61
77299;BME280;66361;52.034;20.656;2023-04-29T04:04:38;99678.50;;;6.55;67.84
77299;BME280;66361;52.034;20.656;2023-04-29T04:08:43;99688.44;;;6.97;65.96
77299;BME280;66361;52.034;20.656;2023-04-29T04:12:48;99683.25;;;7.26;65.50
77299;BME280;66361;52.034;20.656;2023-04-29T04:16:51;99676.84;;;7.62;63.31
77299;BME280;66361;52.034;20.656;2023-04-29T04:20:55;99679.72;;;8.01;62.47
77299;BME280;66361;52.034;20.656;2023-04-29T04:24:59;99676.47;;;8.68;62.15
77299;BME280;66361;52.034;20.656;2023-04-29T04:29:02;99689.63;;;10.02;57.37
77299;BME280;66361;52.034;20.656;2023-04-29T04:33:05;99691.91;;;11.43;51.70
77299;BME280;66361;52.034;20.656;2023-04-29T04:37:11;99690.88;;;12.48;48.33
77299;BME280;66361;52.034;20.656;2023-04-29T04:41:15;99691.06;;;12.80;45.03
77299;BME280;66361;52.034;20.656;2023-04-29T04:45:18;99690.25;;;13.23;44.72
77299;BME280;66361;52.034;20.656;2023-04-29T04:49:22;99682.19;;;13.24;45.05
77299;BME280;66361;52.034;20.656;2023-04-29T04:53:29;99689.69;;;12.63;45.43
77299;BME280;66361;52.034;20.656;2023-04-29T04:57:33;99683.00;;;12.02;47.46
77299;BME280;66361;52.034;20.656;2023-04-29T05:01:36;99680.91;;;11.84;47.08
77299;BME280;66361;52.034;20.656;2023-04-29T05:05:39;99688.56;;;12.22;47.11
77299;BME280;66361;52.034;20.656;2023-04-29T05:09:42;99696.03;;;13.71;44.87
77299;BME280;66361;52.034;20.656;2023-04-29T05:13:46;99694.41;;;15.02;39.83
77299;BME280;66361;52.034;20.656;2023-04-29T05:17:50;99694.22;;;15.43;37.76
77299;BME280;66361;52.034;20.656;2023-04-29T05:21:52;99699.28;;;15.37;38.63
77299;BME280;66361;52.034;20.656;2023-04-29T05:25:55;99701.16;;;15.25;39.99
77299;BME280;66361;52.034;20.656;2023-04-29T05:29:59;99701.25;;;15.35;39.96
77299;BME280;66361;52.034;20.656;2023-04-29T05:34:03;99683.78;;;15.80;38.93
77299;BME280;66361;52.034;20.656;2023-04-29T05:38:06;99683.75;;;16.65;37.54
77299;BME280;66361;52.034;20.656;2023-04-29T05:42:09;99693.13;;;17.51;34.31
77299;BME280;66361;52.034;20.656;2023-04-29T05:46:13;99682.16;;;17.89;33.98
77299;BME280;66361;52.034;20.656;2023-04-29T05:50:17;99680.47;;;18.83;31.38
77299;BME280;66361;52.034;20.656;2023-04-29T05:54:20;99690.47;;;19.15;31.43
77299;BME280;66361;52.034;20.656;2023-04-29T05:58:23;99691.88;;;19.35;31.50
77299;BME280;66361;52.034;20.656;2023-04-29T06:02:28;99683.38;;;20.61;30.29
77299;BME280;66361;52.034;20.656;2023-04-29T06:06:31;99686.56;;;21.96;29.43
77299;BME280;66361;52.034;20.656;2023-04-29T06:10:34;99676.94;;;22.25;26.58
77299;BME280;66361;52.034;20.656;2023-04-29T06:14:38;99678.91;;;22.08;28.23
77299;BME280;66361;52.034;20.656;2023-04-29T06:18:42;99679.84;;;22.38;26.33
77299;BME280;66361;52.034;20.656;2023-04-29T06:22:45;99686.19;;;23.18;25.55
77299;BME280;66361;52.034;20.656;2023-04-29T06:26:50;99678.56;;;23.22;24.98
77299;BME280;66361;52.034;20.656;2023-04-29T06:30:53;99684.91;;;23.86;25.35
77299;BME280;66361;52.034;20.656;2023-04-29T06:34:57;99673.47;;;24.05;24.37
77299;BME280;66361;52.034;20.656;2023-04-29T06:39:00;99680.16;;;24.37;23.69
77299;BME280;66361;52.034;20.656;2023-04-29T06:43:03;99684.06;;;25.24;22.51
77299;BME280;66361;52.034;20.656;2023-04-29T06:47:05;99676.25;;;25.08;23.21
77299;BME280;66361;52.034;20.656;2023-04-29T06:51:10;99677.22;;;24.59;24.98
77299;BME280;66361;52.034;20.656;2023-04-29T06:55:13;99676.28;;;25.56;23.32
77299;BME280;66361;52.034;20.656;2023-04-29T06:59:16;99667.97;;;25.10;23.35
77299;BME280;66361;52.034;20.656;2023-04-29T07:03:19;99665.84;;;25.46;24.05
77299;BME280;66361;52.034;20.656;2023-04-29T07:07:23;99673.78;;;25.13;22.21
77299;BME280;66361;52.034;20.656;2023-04-29T07:11:27;99663.19;;;24.15;24.21
77299;BME280;66361;52.034;20.656;2023-04-29T07:15:33;99669.84;;;22.90;25.35
77299;BME280;66361;52.034;20.656;2023-04-29T07:19:36;99669.16;;;21.69;27.77
77299;BME280;66361;52.034;20.656;2023-04-29T07:23:41;99654.56;;;20.71;30.06
77299;BME280;66361;52.034;20.656;2023-04-29T07:27:46;99665.53;;;23.04;28.19
77299;BME280;66361;52.034;20.656;2023-04-29T07:31:52;99676.28;;;24.18;25.95
77299;BME280;66361;52.034;20.656;2023-04-29T07:35:55;99665.41;;;22.68;27.78
77299;BME280;66361;52.034;20.656;2023-04-29T07:39:59;99675.56;;;22.29;27.04
77299;BME280;66361;52.034;20.656;2023-04-29T07:44:02;99668.78;;;21.95;27.00
77299;BME280;66361;52.034;20.656;2023-04-29T07:48:05;99674.63;;;21.53;28.72
77299;BME280;66361;52.034;20.656;2023-04-29T07:52:08;99677.34;;;20.75;29.98
77299;BME280;66361;52.034;20.656;2023-04-29T07:56:13;99677.22;;;21.00;29.45
77299;BME280;66361;52.034;20.656;2023-04-29T08:00:17;99677.72;;;20.64;31.39
77299;BME280;66361;52.034;20.656;2023-04-29T08:04:20;99676.91;;;20.95;30.82
77299;BME280;66361;52.034;20.656;2023-04-29T08:08:24;99684.94;;;21.03;30.24
77299;BME280;66361;52.034;20.656;2023-04-29T08:12:28;99688.03;;;22.59;27.84
77299;BME280;66361;52.034;20.656;2023-04-29T08:16:32;99681.78;;;24.87;24.46
77299;BME280;66361;52.034;20.656;2023-04-29T08:20:38;99667.44;;;26.34;23.18
77299;BME280;66361;52.034;20.656;2023-04-29T08:24:41;99668.13;;;27.58;21.62
77299;BME280;66361;52.034;20.656;2023-04-29T08:28:47;99672.38;;;28.34;20.31
77299;BME280;66361;52.034;20.656;2023-04-29T08:32:50;99677.28;;;27.19;22.10
77299;BME280;66361;52.034;20.656;2023-04-29T08:36:53;99672.28;;;27.03;21.85
77299;BME280;66361;52.034;20.656;2023-04-29T08:40:57;99669.31;;;27.30;20.98
77299;BME280;66361;52.034;20.656;2023-04-29T08:45:02;99672.91;;;27.24;20.81
77299;BME280;66361;52.034;20.656;2023-04-29T08:49:06;99665.25;;;26.95;22.09
77299;BME280;66361;52.034;20.656;2023-04-29T08:53:10;99654.19;;;26.96;21.82
77299;BME280;66361;52.034;20.656;2023-04-29T08:57:15;99641.59;;;26.51;22.57
77299;BME280;66361;52.034;20.656;2023-04-29T09:01:26;99643.66;;;26.75;23.04
77299;BME280;66361;52.034;20.656;2023-04-29T09:05:33;99646.19;;;26.44;21.75
77299;BME280;66361;52.034;20.656;2023-04-29T09:10:03;99652.97;;;25.48;23.02
77299;BME280;66361;52.034;20.656;2023-04-29T09:14:09;99641.22;;;26.08;22.92
77299;BME280;66361;52.034;20.656;2023-04-29T09:18:45;99649.88;;;25.71;23.01
77299;BME280;66361;52.034;20.656;2023-04-29T09:22:49;99642.28;;;25.27;23.72
77299;BME280;66361;52.034;20.656;2023-04-29T09:26:53;99660.13;;;25.95;24.91
77299;BME280;66361;52.034;20.656;2023-04-29T09:30:57;99626.25;;;25.92;23.03
77299;BME280;66361;52.034;20.656;2023-04-29T09:35:24;99642.44;;;26.32;24.52
77299;BME280;66361;52.034;20.656;2023-04-29T09:39:37;99643.00;;;25.01;24.27
77299;BME280;66361;52.034;20.656;2023-04-29T09:43:41;99632.84;;;25.03;24.50
77299;BME280;66361;52.034;20.656;2023-04-29T09:48:00;99634.66;;;24.96;24.11
77299;BME280;66361;52.034;20.656;2023-04-29T09:52:07;99632.47;;;24.72;24.79
77299;BME280;66361;52.034;20.656;2023-04-29T09:56:10;99622.03;;;24.06;25.58
77299;BME280;66361;52.034;20.656;2023-04-29T10:00:13;99617.09;;;23.82;27.30
77299;BME280;66361;52.034;20.656;2023-04-29T10:04:20;99620.25;;;22.93;28.47
77299;BME280;66361;52.034;20.656;2023-04-29T10:08:25;99608.03;;;21.71;29.32
77299;BME280;66361;52.034;20.656;2023-04-29T10:12:29;99607.19;;;21.48;30.63
77299;BME280;66361;52.034;20.656;2023-04-29T10:16:38;99601.47;;;22.11;31.60
77299;BME280;66361;52.034;20.656;2023-04-29T10:20:46;99609.72;;;22.83;29.12
77299;BME280;66361;52.034;20.656;2023-04-29T10:24:52;99593.28;;;23.07;28.46
77299;BME280;66361;52.034;20.656;2023-04-29T10:28:58;99607.59;;;23.08;30.64
77299;BME280;66361;52.034;20.656;2023-04-29T10:33:02;99603.06;;;22.94;29.12
77299;BME280;66361;52.034;20.656;2023-04-29T10:37:07;99590.19;;;22.45;28.70
77299;BME280;66361;52.034;20.656;2023-04-29T10:41:19;99589.25;;;21.86;29.95
77299;BME280;66361;52.034;20.656;2023-04-29T10:45:25;99593.53;;;22.33;29.21
77299;BME280;66361;52.034;20.656;2023-04-29T10:49:33;99591.56;;;22.41;28.12
77299;BME280;66361;52.034;20.656;2023-04-29T10:53:57;99578.72;;;22.87;29.04
77299;BME280;66361;52.034;20.656;2023-04-29T10:58:02;99581.47;;;22.58;28.59
77299;BME280;66361;52.034;20.656;2023-04-29T11:02:05;99592.59;;;22.26;29.91
77299;BME280;66361;52.034;20.656;2023-04-29T11:06:11;99581.00;;;22.40;29.56
77299;BME280;66361;52.034;20.656;2023-04-29T11:10:14;99584.41;;;22.78;29.55
77299;BME280;66361;52.034;20.656;2023-04-29T11:14:23;99572.94;;;22.25;31.09
77299;BME280;66361;52.034;20.656;2023-04-29T11:18:27;99577.88;;;22.22;30.12
77299;BME280;66361;52.034;20.656;2023-04-29T11:22:30;99573.09;;;22.67;30.84
77299;BME280;66361;52.034;20.656;2023-04-29T11:26:36;99580.56;;;23.01;28.72
77299;BME280;66361;52.034;20.656;2023-04-29T11:30:40;99574.94;;;22.67;29.10
77299;BME280;66361;52.034;20.656;2023-04-29T11:34:44;99576.41;;;22.84;29.08
77299;BME280;66361;52.034;20.656;2023-04-29T11:38:47;99560.34;;;22.26;29.70
77299;BME280;66361;52.034;20.656;2023-04-29T11:42:50;99555.72;;;21.82;31.88
77299;BME280;66361;52.034;20.656;2023-04-29T11:47:01;99566.66;;;21.81;32.11
77299;BME280;66361;52.034;20.656;2023-04-29T11:51:05;99551.31;;;21.21;31.26
77299;BME280;66361;52.034;20.656;2023-04-29T11:55:08;99549.69;;;20.50;31.66
77299;BME280;66361;52.034;20.656;2023-04-29T11:59:12;99556.91;;;21.42;34.31
77299;BME280;66361;52.034;20.656;2023-04-29T12:03:18;99548.16;;;21.17;32.44
77299;BME280;66361;52.034;20.656;2023-04-29T12:07:22;99558.06;;;20.55;33.95
77299;BME280;66361;52.034;20.656;2023-04-29T12:11:26;99555.78;;;20.28;36.41
77299;BME280;66361;52.034;20.656;2023-04-29T12:15:29;99556.13;;;20.25;34.15
77299;BME280;66361;52.034;20.656;2023-04-29T12:19:38;99554.00;;;20.12;34.18
77299;BME280;66361;52.034;20.656;2023-04-29T12:23:41;99544.88;;;20.46;35.38
77299;BME280;66361;52.034;20.656;2023-04-29T12:27:44;99546.56;;;21.08;33.45
77299;BME280;66361;52.034;20.656;2023-04-29T12:31:50;99542.53;;;21.35;33.10
77299;BME280;66361;52.034;20.656;2023-04-29T12:35:56;99533.03;;;21.02;32.26
77299;BME280;66361;52.034;20.656;2023-04-29T12:40:00;99527.00;;;20.30;34.13
77299;BME280;66361;52.034;20.656;2023-04-29T12:44:04;99528.53;;;20.94;33.91
77299;BME280;66361;52.034;20.656;2023-04-29T12:48:07;99527.88;;;20.92;33.98
77299;BME280;66361;52.034;20.656;2023-04-29T12:52:28;99524.00;;;21.17;32.69
77299;BME280;66361;52.034;20.656;2023-04-29T12:56:31;99519.06;;;21.29;32.49
77299;BME280;66361;52.034;20.656;2023-04-29T13:00:34;99513.50;;;21.08;32.21
77299;BME280;66361;52.034;20.656;2023-04-29T13:04:38;99516.81;;;20.64;33.87
77299;BME280;66361;52.034;20.656;2023-04-29T13:08:45;99511.00;;;20.53;33.58
77299;BME280;66361;52.034;20.656;2023-04-29T13:12:49;99505.25;;;20.17;35.04
77299;BME280;66361;52.034;20.656;2023-04-29T13:16:52;99504.28;;;20.10;35.11
77299;BME280;66361;52.034;20.656;2023-04-29T13:20:55;99495.78;;;19.98;34.86
77299;BME280;66361;52.034;20.656;2023-04-29T13:25:02;99492.34;;;19.65;38.61
77299;BME280;66361;52.034;20.656;2023-04-29T13:29:06;99499.84;;;19.46;38.92
77299;BME280;66361;52.034;20.656;2023-04-29T13:33:10;99499.19;;;19.44;35.55
77299;BME280;66361;52.034;20.656;2023-04-29T13:37:13;99485.31;;;19.64;35.79
77299;BME280;66361;52.034;20.656;2023-04-29T13:41:18;99485.78;;;19.84;35.15
77299;BME280;66361;52.034;20.656;2023-04-29T13:45:21;99496.97;;;19.88;36.12
77299;BME280;66361;52.034;20.656;2023-04-29T13:49:24;99491.78;;;19.86;35.57
77299;BME280;66361;52.034;20.656;2023-04-29T13:53:30;99500.34;;;19.81;35.81
77299;BME280;66361;52.034;20.656;2023-04-29T13:57:55;99493.34;;;19.64;38.12
77299;BME280;66361;52.034;20.656;2023-04-29T14:02:02;99494.66;;;19.68;36.79
77299;BME280;66361;52.034;20.656;2023-04-29T14:06:08;99494.31;;;19.63;38.25
77299;BME280;66361;52.034;20.656;2023-04-29T14:10:11;99488.66;;;19.66;35.96
77299;BME280;66361;52.034;20.656;2023-04-29T14:14:15;99489.81;;;19.64;37.12
77299;BME280;66361;52.034;20.656;2023-04-29T14:18:18;99492.16;;;19.51;37.56
77299;BME280;66361;52.034;20.656;2023-04-29T14:22:21;99489.00;;;19.39;38.42
77299;BME280;66361;52.034;20.656;2023-04-29T14:26:24;99487.66;;;19.43;38.04
77299;BME280;66361;52.034;20.656;2023-04-29T14:30:30;99474.94;;;19.53;37.63
77299;BME280;66361;52.034;20.656;2023-04-29T14:34:34;99478.94;;;19.49;35.74
77299;BME280;66361;52.034;20.656;2023-04-29T14:38:37;99475.94;;;19.60;37.57
77299;BME280;66361;52.034;20.656;2023-04-29T14:42:39;99473.44;;;19.67;36.19
77299;BME280;66361;52.034;20.656;2023-04-29T14:46:44;99479.44;;;19.45;38.91
77299;BME280;66361;52.034;20.656;2023-04-29T14:50:47;99478.28;;;19.31;36.56
77299;BME280;66361;52.034;20.656;2023-04-29T14:54:53;99474.78;;;19.30;38.09
77299;BME280;66361;52.034;20.656;2023-04-29T14:58:59;99470.09;;;19.16;37.54
77299;BME280;66361;52.034;20.656;2023-04-29T15:03:03;99472.28;;;19.21;37.87
77299;BME280;66361;52.034;20.656;2023-04-29T15:07:07;99472.44;;;19.27;38.57
77299;BME280;66361;52.034;20.656;2023-04-29T15:11:10;99474.28;;;19.35;38.81
77299;BME280;66361;52.034;20.656;2023-04-29T15:15:13;99471.44;;;19.37;39.60
77299;BME280;66361;52.034;20.656;2023-04-29T15:19:18;99471.94;;;19.16;39.33
77299;BME280;66361;52.034;20.656;2023-04-29T15:23:21;99475.25;;;18.85;39.00
77299;BME280;66361;52.034;20.656;2023-04-29T15:27:25;99475.06;;;18.71;39.83
77299;BME280;66361;52.034;20.656;2023-04-29T15:31:28;99472.38;;;18.63;40.34
77299;BME280;66361;52.034;20.656;2023-04-29T15:35:34;99476.56;;;18.57;40.23
77299;BME280;66361;52.034;20.656;2023-04-29T15:39:38;99479.16;;;18.49;41.87
77299;BME280;66361;52.034;20.656;2023-04-29T15:43:41;99477.16;;;18.51;41.83
77299;BME280;66361;52.034;20.656;2023-04-29T15:47:44;99479.13;;;18.41;42.27
77299;BME280;66361;52.034;20.656;2023-04-29T15:51:49;99477.75;;;18.29;43.17
77299;BME280;66361;52.034;20.656;2023-04-29T15:55:52;99479.78;;;17.93;43.90
77299;BME280;66361;52.034;20.656;2023-04-29T15:59:55;99479.81;;;17.67;44.36
77299;BME280;66361;52.034;20.656;2023-04-29T16:03:58;99483.88;;;17.36;44.74
77299;BME280;66361;52.034;20.656;2023-04-29T16:08:03;99480.09;;;17.21;45.44
77299;BME280;66361;52.034;20.656;2023-04-29T16:12:07;99483.63;;;17.04;46.63
77299;BME280;66361;52.034;20.656;2023-04-29T16:16:12;99490.84;;;16.93;47.31
77299;BME280;66361;52.034;20.656;2023-04-29T16:20:15;99486.59;;;16.83;48.52
77299;BME280;66361;52.034;20.656;2023-04-29T16:24:21;99494.28;;;16.68;48.62
77299;BME280;66361;52.034;20.656;2023-04-29T16:28:24;99485.53;;;16.48;48.67
77299;BME280;66361;52.034;20.656;2023-04-29T16:32:28;99498.06;;;16.38;50.09
77299;BME280;66361;52.034;20.656;2023-04-29T16:36:31;99499.44;;;16.25;51.19
77299;BME280;66361;52.034;20.656;2023-04-29T16:40:36;99500.00;;;16.19;51.85
77299;BME280;66361;52.034;20.656;2023-04-29T16:44:40;99492.06;;;16.09;52.59
77299;BME280;66361;52.034;20.656;2023-04-29T16:48:43;99503.59;;;16.00;52.75
77299;BME280;66361;52.034;20.656;2023-04-29T16:52:46;99506.97;;;15.92;52.60
77299;BME280;66361;52.034;20.656;2023-04-29T16:56:51;99510.91;;;15.88;53.37
77299;BME280;66361;52.034;20.656;2023-04-29T17:00:54;99510.28;;;15.77;53.97
77299;BME280;66361;52.034;20.656;2023-04-29T17:04:57;99498.41;;;15.62;54.99
77299;BME280;66361;52.034;20.656;2023-04-29T17:09:00;99503.88;;;15.60;55.06
77299;BME280;66361;52.034;20.656;2023-04-29T17:13:05;99511.88;;;15.50;54.60
77299;BME280;66361;52.034;20.656;2023-04-29T17:17:08;99504.63;;;15.43;55.03
77299;BME280;66361;52.034;20.656;2023-04-29T17:21:11;99513.28;;;15.35;55.14
77299;BME280;66361;52.034;20.656;2023-04-29T17:25:14;99509.06;;;15.23;56.25
77299;BME280;66361;52.034;20.656;2023-04-29T17:29:19;99514.25;;;15.15;57.45
77299;BME280;66361;52.034;20.656;2023-04-29T17:33:23;99510.75;;;15.05;57.60
77299;BME280;66361;52.034;20.656;2023-04-29T17:37:34;99514.13;;;14.97;57.33
77299;BME280;66361;52.034;20.656;2023-04-29T17:41:37;99513.13;;;14.89;57.58
77299;BME280;66361;52.034;20.656;2023-04-29T17:45:41;99502.22;;;14.82;57.62
77299;BME280;66361;52.034;20.656;2023-04-29T17:49:45;99509.06;;;14.75;58.75
77299;BME280;66361;52.034;20.656;2023-04-29T17:53:48;99512.53;;;14.66;59.59
77299;BME280;66361;52.034;20.656;2023-04-29T17:57:50;99516.03;;;14.57;60.69
77299;BME280;66361;52.034;20.656;2023-04-29T18:01:55;99513.22;;;14.49;62.43
77299;BME280;66361;52.034;20.656;2023-04-29T18:06:04;99516.56;;;14.41;61.80
77299;BME280;66361;52.034;20.656;2023-04-29T18:10:07;99519.03;;;14.33;63.82
77299;BME280;66361;52.034;20.656;2023-04-29T18:14:12;99515.78;;;14.20;64.81
77299;BME280;66361;52.034;20.656;2023-04-29T18:18:17;99525.25;;;14.13;67.62
77299;BME280;66361;52.034;20.656;2023-04-29T18:22:20;99517.50;;;14.00;67.23
77299;BME280;66361;52.034;20.656;2023-04-29T18:26:23;99520.38;;;13.88;68.83
77299;BME280;66361;52.034;20.656;2023-04-29T18:30:28;99523.94;;;13.77;68.12
77299;BME280;66361;52.034;20.656;2023-04-29T18:34:33;99529.91;;;13.70;68.29
77299;BME280;66361;52.034;20.656;2023-04-29T18:38:36;99532.50;;;13.60;70.03
77299;BME280;66361;52.034;20.656;2023-04-29T18:42:40;99530.06;;;13.47;71.48
77299;BME280;66361;52.034;20.656;2023-04-29T18:46:43;99542.38;;;13.37;72.63
77299;BME280;66361;52.034;20.656;2023-04-29T18:50:54;99545.56;;;13.31;74.92
77299;BME280;66361;52.034;20.656;2023-04-29T18:55:01;99537.41;;;13.23;75.92
77299;BME280;66361;52.034;20.656;2023-04-29T18:59:04;99547.69;;;13.17;76.69
77299;BME280;66361;52.034;20.656;2023-04-29T19:03:09;99547.34;;;13.10;76.71
77299;BME280;66361;52.034;20.656;2023-04-29T19:07:14;99540.88;;;13.03;73.96
77299;BME280;66361;52.034;20.656;2023-04-29T19:11:17;99536.91;;;12.97;73.18
77299;BME280;66361;52.034;20.656;2023-04-29T19:15:21;99547.50;;;12.97;73.56
77299;BME280;66361;52.034;20.656;2023-04-29T19:19:25;99542.34;;;12.96;75.28
77299;BME280;66361;52.034;20.656;2023-04-29T19:23:30;99534.53;;;12.94;74.80
77299;BME280;66361;52.034;20.656;2023-04-29T19:27:32;99542.47;;;12.94;76.29
77299;BME280;66361;52.034;20.656;2023-04-29T19:31:39;99540.19;;;12.90;75.60
77299;BME280;66361;52.034;20.656;2023-04-29T19:35:43;99534.19;;;12.88;75.06
77299;BME280;66361;52.034;20.656;2023-04-29T19:39:47;99531.78;;;12.85;74.62
77299;BME280;66361;52.034;20.656;2023-04-29T19:43:52;99533.19;;;12.89;73.52
77299;BME280;66361;52.034;20.656;2023-04-29T19:47:55;99530.44;;;12.90;72.50
77299;BME280;66361;52.034;20.656;2023-04-29T19:52:02;99546.06;;;12.93;72.38
77299;BME280;66361;52.034;20.656;2023-04-29T19:56:07;99549.69;;;12.92;72.48
77299;BME280;66361;52.034;20.656;2023-04-29T20:00:10;99555.97;;;12.91;72.48
77299;BME280;66361;52.034;20.656;2023-04-29T20:04:15;99558.03;;;12.88;73.16
77299;BME280;66361;52.034;20.656;2023-04-29T20:08:18;99552.50;;;12.80;73.43
77299;BME280;66361;52.034;20.656;2023-04-29T20:12:22;99563.72;;;12.72;75.06
77299;BME280;66361;52.034;20.656;2023-04-29T20:16:25;99552.97;;;12.62;74.82
77299;BME280;66361;52.034;20.656;2023-04-29T20:20:30;99559.88;;;12.54;74.92
77299;BME280;66361;52.034;20.656;2023-04-29T20:24:33;99551.97;;;12.43;74.92
77299;BME280;66361;52.034;20.656;2023-04-29T20:28:38;99541.50;;;12.30;75.21
77299;BME280;66361;52.034;20.656;2023-04-29T20:32:41;99553.03;;;12.18;74.63
77299;BME280;66361;52.034;20.656;2023-04-29T20:36:46;99553.78;;;12.09;77.26
77299;BME280;66361;52.034;20.656;2023-04-29T20:40:51;99556.03;;;12.02;78.72
77299;BME280;66361;52.034;20.656;2023-04-29T20:44:56;99553.19;;;11.94;79.83
77299;BME280;66361;52.034;20.656;2023-04-29T20:48:59;99552.78;;;11.88;79.27
77299;BME280;66361;52.034;20.656;2023-04-29T20:53:02;99554.97;;;11.83;79.90
77299;BME280;66361;52.034;20.656;2023-04-29T20:57:06;99553.53;;;11.79;79.23
77299;BME280;66361;52.034;20.656;2023-04-29T21:01:11;99545.59;;;11.79;78.24
77299;BME280;66361;52.034;20.656;2023-04-29T21:05:14;99554.97;;;11.83;79.33
77299;BME280;66361;52.034;20.656;2023-04-29T21:09:17;99547.50;;;11.88;78.86
77299;BME280;66361;52.034;20.656;2023-04-29T21:13:20;99552.44;;;11.92;81.10
77299;BME280;66361;52.034;20.656;2023-04-29T21:17:25;99554.84;;;11.95;82.09
77299;BME280;66361;52.034;20.656;2023-04-29T21:21:28;99554.84;;;11.95;82.11
77299;BME280;66361;52.034;20.656;2023-04-29T21:25:32;99562.78;;;11.95;82.76